createdAt,value
2022-08-26T00:00:06.776Z,30.05
2022-08-26T00:05:13.416Z,30.77
2022-08-26T00:10:14.149Z,29.60
2022-08-26T00:15:19.022Z,37.58
2022-08-26T00:20:25.277Z,30.40
2022-08-26T00:25:27.676Z,35.13
2022-08-26T00:30:31.256Z,32.80
2022-08-26T00:35:33.673Z,34.33
2022-08-26T00:40:36.619Z,43.42
2022-08-26T00:45:45.508Z,38.90
2022-08-26T00:50:51.665Z,38.38
2022-08-26T00:55:58.175Z,43.40
2022-08-26T01:01:00.271Z,38.50
2022-08-26T01:06:03.753Z,40.28
2022-08-26T01:11:05.881Z,29.65
2022-08-26T01:16:13.775Z,31.33
2022-08-26T01:21:26.887Z,35.58
2022-08-26T01:26:31.902Z,44.45
2022-08-26T01:31:39.676Z,40.97
2022-08-26T01:36:41.464Z,35.45
2022-08-26T01:41:45.421Z,37.20
2022-08-26T01:46:49.956Z,37.88
2022-08-26T01:51:54.628Z,30.92
2022-08-26T01:56:56.953Z,40.63
2022-08-26T02:01:58.385Z,30.80
2022-08-26T02:07:00.172Z,40.10
2022-08-26T02:12:02.876Z,34.30
2022-08-26T02:17:07.199Z,45.53
2022-08-26T02:22:14.998Z,31.65
2022-08-26T02:27:20.392Z,34.85
2022-08-26T02:32:21.630Z,40.83
2022-08-26T02:37:24.066Z,41.50
2022-08-26T02:42:27.448Z,39.38
2022-08-26T02:47:29.091Z,37.20
2022-08-26T02:52:30.013Z,40.15
2022-08-26T02:57:32.612Z,39.72
2022-08-26T03:02:33.361Z,37.15
2022-08-26T03:07:34.552Z,37.50
2022-08-26T03:12:37.106Z,38.03
2022-08-26T03:17:38.057Z,42.63
2022-08-26T03:22:40.863Z,45.55
2022-08-26T03:27:43.654Z,39.22
2022-08-26T03:32:44.528Z,41.03
2022-08-26T03:37:45.217Z,44.70
2022-08-26T03:42:47.739Z,31.73
2022-08-26T03:47:49.326Z,38.92
2022-08-26T03:52:51.619Z,40.08
2022-08-26T03:57:54.167Z,35.78
2022-08-26T04:02:56.169Z,46.75
2022-08-26T04:07:56.973Z,31.38
2022-08-26T04:13:00.522Z,40.10
2022-08-26T04:18:01.197Z,35.60
2022-08-26T04:23:01.976Z,34.92
2022-08-26T04:28:04.494Z,37.13
2022-08-26T04:33:12.742Z,32.05
2022-08-26T04:38:14.264Z,38.97
2022-08-26T04:43:16.398Z,43.40
2022-08-26T04:48:17.082Z,31.73
2022-08-26T04:53:19.061Z,32.35
2022-08-26T04:58:23.533Z,38.83
2022-08-26T05:03:25.500Z,39.67
2022-08-26T05:08:27.076Z,33.50
2022-08-26T05:13:29.591Z,36.30
2022-08-26T05:18:30.379Z,39.67
2022-08-26T05:23:32.647Z,38.13
2022-08-26T05:28:34.924Z,31.65
2022-08-26T05:33:36.008Z,37.25
2022-08-26T05:38:36.966Z,34.70
2022-08-26T05:43:38.976Z,32.15
2022-08-26T05:48:44.385Z,32.17
2022-08-26T05:53:54.369Z,38.05
2022-08-26T05:58:58.393Z,33.38
2022-08-26T06:04:02.486Z,33.90
2022-08-26T06:09:05.090Z,31.67
2022-08-26T06:14:08.760Z,34.00
2022-08-26T06:19:11.930Z,37.53
2022-08-26T06:24:32.314Z,30.85
2022-08-26T06:29:36.372Z,35.42
2022-08-26T06:34:38.526Z,38.22
2022-08-26T06:39:41.106Z,26.90
2022-08-26T06:44:44.702Z,31.35
2022-08-26T06:49:45.577Z,24.02
2022-08-26T06:54:46.260Z,30.23
2022-08-26T06:59:48.888Z,34.28
2022-08-26T07:04:51.962Z,26.15
2022-08-26T07:09:57.472Z,27.75
2022-08-26T07:14:59.726Z,27.05
2022-08-26T07:20:01.315Z,35.55
2022-08-26T07:25:02.198Z,29.77
2022-08-26T07:30:07.743Z,28.02
2022-08-26T07:35:09.241Z,28.63
2022-08-26T07:40:10.699Z,30.00
2022-08-26T07:45:14.198Z,25.35
2022-08-26T07:50:15.002Z,24.70
2022-08-26T07:55:16.673Z,35.17
2022-08-26T08:00:18.881Z,29.25
2022-08-26T08:05:22.846Z,25.17
2022-08-26T08:10:34.577Z,27.45
2022-08-26T08:15:37.670Z,39.83
2022-08-26T08:20:42.283Z,26.23
2022-08-26T08:25:45.644Z,23.77
2022-08-26T08:30:47.867Z,33.10
2022-08-26T08:35:49.247Z,31.20
2022-08-26T08:40:51.360Z,33.53
2022-08-26T08:45:59.765Z,23.25
2022-08-26T08:51:09.112Z,29.17
2022-08-26T08:56:20.613Z,29.02
2022-08-26T09:01:37.130Z,25.77
2022-08-26T09:06:41.060Z,25.77
2022-08-26T09:11:44.386Z,28.80
2022-08-26T09:16:52.649Z,28.20
2022-08-26T09:21:56.903Z,24.48
2022-08-26T09:26:59.369Z,27.00
2022-08-26T09:32:21.251Z,21.65
2022-08-26T09:37:38.357Z,23.98
2022-08-26T09:42:40.049Z,29.65
2022-08-26T09:47:55.017Z,29.80
2022-08-26T09:53:12.830Z,25.15
2022-08-26T09:58:15.914Z,23.02
2022-08-26T10:03:27.203Z,24.10
2022-08-26T10:08:32.489Z,23.02
2022-08-26T10:13:37.205Z,30.05
2022-08-26T10:18:46.187Z,26.67
2022-08-26T10:23:50.871Z,28.40
2022-08-26T10:28:57.672Z,26.42
2022-08-26T10:34:00.791Z,23.63
2022-08-26T10:39:05.844Z,21.20
2022-08-26T10:44:12.734Z,23.20
2022-08-26T10:49:17.847Z,23.88
2022-08-26T10:54:25.229Z,21.00
2022-08-26T10:59:36.951Z,20.75
2022-08-26T11:04:48.510Z,28.13
2022-08-26T11:09:49.737Z,19.10
2022-08-26T11:14:58.776Z,18.15
2022-08-26T11:20:09.257Z,27.10
2022-08-26T11:25:15.423Z,24.80
2022-08-26T11:30:45.123Z,24.52
2022-08-26T11:35:50.102Z,27.27
2022-08-26T11:41:08.927Z,22.08
2022-08-26T11:46:12.128Z,11.70
2022-08-26T11:51:23.333Z,14.32
2022-08-26T11:56:31.606Z,8.10
2022-08-26T12:01:35.778Z,11.60
2022-08-26T12:06:45.227Z,10.32
2022-08-26T12:11:46.651Z,10.88
2022-08-26T12:16:48.018Z,10.55
2022-08-26T12:21:50.713Z,16.95
2022-08-26T12:27:11.969Z,14.48
2022-08-26T12:32:17.474Z,14.48
2022-08-26T12:37:19.915Z,15.10
2022-08-26T12:42:41.024Z,10.70
2022-08-26T12:47:44.659Z,16.90
2022-08-26T12:52:56.398Z,17.23
2022-08-26T12:58:21.209Z,16.02
2022-08-26T13:03:46.219Z,14.00
2022-08-26T13:08:49.632Z,9.10
2022-08-26T13:13:53.519Z,12.15
2022-08-26T13:18:56.132Z,10.77
2022-08-26T13:24:02.400Z,12.20
2022-08-26T13:29:05.350Z,9.32
2022-08-26T13:34:10.396Z,14.63
2022-08-26T13:39:13.472Z,13.75
2022-08-26T13:44:14.581Z,16.25
2022-08-26T13:49:15.664Z,18.27
2022-08-26T13:54:17.829Z,15.65
2022-08-26T13:59:19.401Z,12.50
2022-08-26T14:04:27.370Z,8.88
2022-08-26T14:09:29.881Z,10.73
2022-08-26T14:14:30.627Z,19.10
2022-08-26T14:19:32.914Z,11.60
2022-08-26T14:24:34.947Z,14.25
2022-08-26T14:29:35.627Z,14.85
2022-08-26T14:34:36.502Z,24.70
2022-08-26T14:39:38.536Z,12.70
2022-08-26T14:44:39.950Z,13.35
2022-08-26T14:49:40.639Z,9.95
2022-08-26T14:54:42.814Z,20.30
2022-08-26T14:59:49.852Z,16.60
2022-08-26T15:04:51.409Z,13.40
2022-08-26T15:09:53.477Z,15.15
2022-08-26T15:14:54.233Z,24.13
2022-08-26T15:19:55.229Z,10.95
2022-08-26T15:24:57.512Z,13.30
2022-08-26T15:29:58.262Z,13.02
2022-08-26T15:34:59.079Z,14.13
2022-08-26T15:40:01.202Z,11.60
2022-08-26T15:45:01.927Z,13.15
2022-08-26T15:50:02.640Z,12.18
2022-08-26T15:55:05.387Z,27.30
2022-08-26T16:00:07.692Z,10.45
2022-08-26T16:05:13.554Z,16.70
2022-08-26T16:10:15.585Z,13.05
2022-08-26T16:15:16.803Z,11.48
2022-08-26T16:20:17.692Z,16.92
2022-08-26T16:25:20.187Z,13.68
2022-08-26T16:30:21.889Z,14.45
2022-08-26T16:35:23.244Z,8.93
2022-08-26T16:40:25.840Z,11.98
2022-08-26T16:45:27.583Z,18.63
2022-08-26T16:50:28.372Z,11.95
2022-08-26T16:55:30.553Z,15.10
2022-08-26T17:00:34.608Z,12.93
2022-08-26T17:05:36.336Z,11.93
2022-08-26T17:10:38.565Z,10.18
2022-08-26T17:15:39.558Z,13.05
2022-08-26T17:20:40.252Z,16.77
2022-08-26T17:25:42.543Z,8.23
2022-08-26T17:30:44.379Z,11.00
2022-08-26T17:35:45.085Z,15.00
2022-08-26T17:40:47.223Z,10.80
2022-08-26T17:45:48.248Z,12.23
2022-08-26T17:50:49.480Z,12.45
2022-08-26T17:55:52.624Z,8.68
2022-08-26T18:00:54.662Z,10.68
2022-08-26T18:05:55.416Z,8.82
2022-08-26T18:10:57.507Z,13.43
2022-08-26T18:15:58.318Z,12.07
2022-08-26T18:21:01.844Z,14.02
2022-08-26T18:26:04.136Z,8.88
2022-08-26T18:31:07.741Z,12.77
2022-08-26T18:36:09.061Z,9.90
2022-08-26T18:41:11.230Z,10.10
2022-08-26T18:46:12.434Z,12.20
2022-08-26T18:51:17.274Z,16.50
2022-08-26T18:56:19.903Z,12.57
2022-08-26T19:01:25.450Z,17.42
2022-08-26T19:06:32.810Z,15.13
2022-08-26T19:11:37.508Z,13.63
2022-08-26T19:16:45.996Z,10.02
2022-08-26T19:21:47.756Z,10.07
2022-08-26T19:26:55.203Z,11.70
2022-08-26T19:31:59.016Z,12.48
2022-08-26T19:36:59.752Z,10.57
2022-08-26T19:42:01.842Z,10.38
2022-08-26T19:47:03.562Z,10.48
2022-08-26T19:52:05.642Z,8.02
2022-08-26T19:57:08.017Z,9.45
2022-08-26T20:02:11.098Z,10.50
2022-08-26T20:07:15.351Z,11.50
2022-08-26T20:12:20.474Z,8.07
2022-08-26T20:17:21.212Z,12.50
2022-08-26T20:22:22.236Z,9.60
2022-08-26T20:27:37.873Z,10.23
2022-08-26T20:32:39.954Z,10.75
2022-08-26T20:37:41.709Z,14.20
2022-08-26T20:42:43.741Z,13.60
2022-08-26T20:47:44.617Z,17.13
2022-08-26T20:52:46.337Z,10.27
2022-08-26T20:57:49.458Z,10.50
2022-08-26T21:02:50.488Z,8.32
2022-08-26T21:07:51.467Z,14.40
2022-08-26T21:12:53.494Z,18.98
2022-08-26T21:17:54.283Z,13.15
2022-08-26T21:22:54.970Z,18.15
2022-08-26T21:27:57.297Z,20.48
2022-08-26T21:32:58.004Z,14.55
2022-08-26T21:37:58.897Z,18.77
2022-08-26T21:43:00.888Z,16.30
2022-08-26T21:48:01.629Z,16.85
2022-08-26T21:53:02.336Z,18.25
2022-08-26T21:58:04.370Z,20.92
2022-08-26T22:03:05.122Z,20.30
2022-08-26T22:08:05.923Z,17.92
2022-08-26T22:13:08.525Z,20.50
2022-08-26T22:18:09.722Z,15.32
2022-08-26T22:23:11.135Z,15.30
2022-08-26T22:28:13.279Z,14.27
2022-08-26T22:33:14.473Z,16.48
2022-08-26T22:38:15.490Z,18.20
2022-08-26T22:43:18.300Z,16.85
2022-08-26T22:48:21.633Z,18.80
2022-08-26T22:53:22.784Z,16.80
2022-08-26T22:58:30.866Z,18.73
2022-08-26T23:03:31.947Z,12.68
2022-08-26T23:08:32.669Z,12.63
2022-08-26T23:13:34.663Z,13.63
2022-08-26T23:18:35.789Z,16.35
2022-08-26T23:23:36.488Z,12.63
2022-08-26T23:28:39.621Z,14.63
2022-08-26T23:33:57.864Z,18.42
2022-08-26T23:38:59.054Z,13.95
2022-08-26T23:44:03.540Z,17.40
2022-08-26T23:49:05.459Z,14.68
2022-08-26T23:54:07.176Z,13.63
2022-08-26T23:59:10.284Z,14.10
